sensor_id;sensor_type;location;lat;lon;timestamp;P1;durP1;ratioP1;P2;durP2;ratioP2
21458;SDS011;10891;49.350;19.386;2023-04-21T00:01:10;28.35;;;14.27;;
21458;SDS011;10891;49.350;19.386;2023-04-21T00:03:37;30.23;;;15.00;;
21458;SDS011;10891;49.350;19.386;2023-04-21T00:06:07;26.08;;;13.20;;
21458;SDS011;10891;49.350;19.386;2023-04-21T00:08:34;24.35;;;13.55;;
21458;SDS011;10891;49.350;19.386;2023-04-21T00:11:04;21.48;;;12.50;;
21458;SDS011;10891;49.350;19.386;2023-04-21T00:13:31;26.92;;;12.50;;
21458;SDS011;10891;49.350;19.386;2023-04-21T00:15:58;45.58;;;19.25;;
21458;SDS011;10891;49.350;19.386;2023-04-21T00:18:25;25.63;;;13.90;;
21458;SDS011;10891;49.350;19.386;2023-04-21T00:20:52;39.40;;;16.65;;
21458;SDS011;10891;49.350;19.386;2023-04-21T00:23:21;26.38;;;12.90;;
21458;SDS011;10891;49.350;19.386;2023-04-21T00:25:47;37.95;;;17.08;;
21458;SDS011;10891;49.350;19.386;2023-04-21T00:28:14;28.63;;;14.43;;
21458;SDS011;10891;49.350;19.386;2023-04-21T00:30:41;23.10;;;12.55;;
21458;SDS011;10891;49.350;19.386;2023-04-21T00:33:08;19.80;;;12.15;;
21458;SDS011;10891;49.350;19.386;2023-04-21T00:35:35;25.70;;;11.63;;
21458;SDS011;10891;49.350;19.386;2023-04-21T00:38:02;22.55;;;12.30;;
21458;SDS011;10891;49.350;19.386;2023-04-21T00:40:31;26.30;;;12.30;;
21458;SDS011;10891;49.350;19.386;2023-04-21T00:42:58;27.42;;;12.43;;
21458;SDS011;10891;49.350;19.386;2023-04-21T00:45:30;26.63;;;12.82;;
21458;SDS011;10891;49.350;19.386;2023-04-21T00:47:57;40.53;;;17.77;;
21458;SDS011;10891;49.350;19.386;2023-04-21T00:50:27;35.00;;;17.48;;
21458;SDS011;10891;49.350;19.386;2023-04-21T00:52:54;32.13;;;15.27;;
21458;SDS011;10891;49.350;19.386;2023-04-21T00:55:21;29.45;;;15.18;;
21458;SDS011;10891;49.350;19.386;2023-04-21T00:57:50;31.30;;;15.77;;
21458;SDS011;10891;49.350;19.386;2023-04-21T01:00:18;39.10;;;19.50;;
21458;SDS011;10891;49.350;19.386;2023-04-21T01:02:45;40.53;;;18.45;;
21458;SDS011;10891;49.350;19.386;2023-04-21T01:05:12;36.92;;;15.60;;
21458;SDS011;10891;49.350;19.386;2023-04-21T01:07:40;31.38;;;14.15;;
21458;SDS011;10891;49.350;19.386;2023-04-21T01:10:07;70.75;;;24.13;;
21458;SDS011;10891;49.350;19.386;2023-04-21T01:12:40;29.02;;;13.35;;
21458;SDS011;10891;49.350;19.386;2023-04-21T01:15:10;42.08;;;18.55;;
21458;SDS011;10891;49.350;19.386;2023-04-21T01:17:38;37.17;;;17.50;;
21458;SDS011;10891;49.350;19.386;2023-04-21T01:20:06;28.38;;;13.70;;
21458;SDS011;10891;49.350;19.386;2023-04-21T01:22:37;24.58;;;13.98;;
21458;SDS011;10891;49.350;19.386;2023-04-21T01:25:06;26.25;;;12.13;;
21458;SDS011;10891;49.350;19.386;2023-04-21T01:27:34;24.40;;;13.07;;
21458;SDS011;10891;49.350;19.386;2023-04-21T01:30:00;40.15;;;15.80;;
21458;SDS011;10891;49.350;19.386;2023-04-21T01:32:28;198.18;;;46.60;;
21458;SDS011;10891;49.350;19.386;2023-04-21T01:34:56;50.08;;;18.95;;
21458;SDS011;10891;49.350;19.386;2023-04-21T01:37:24;35.58;;;15.27;;
21458;SDS011;10891;49.350;19.386;2023-04-21T01:39:54;35.90;;;15.15;;
21458;SDS011;10891;49.350;19.386;2023-04-21T01:42:24;31.48;;;13.52;;
21458;SDS011;10891;49.350;19.386;2023-04-21T01:44:52;28.17;;;14.40;;
21458;SDS011;10891;49.350;19.386;2023-04-21T01:47:20;33.17;;;17.15;;
21458;SDS011;10891;49.350;19.386;2023-04-21T01:49:47;39.67;;;16.88;;
21458;SDS011;10891;49.350;19.386;2023-04-21T01:52:14;37.35;;;15.60;;
21458;SDS011;10891;49.350;19.386;2023-04-21T01:54:41;28.90;;;14.43;;
21458;SDS011;10891;49.350;19.386;2023-04-21T01:57:09;27.67;;;13.20;;
21458;SDS011;10891;49.350;19.386;2023-04-21T01:59:36;26.98;;;13.40;;
21458;SDS011;10891;49.350;19.386;2023-04-21T02:02:03;26.15;;;13.95;;
21458;SDS011;10891;49.350;19.386;2023-04-21T02:04:30;29.75;;;14.25;;
21458;SDS011;10891;49.350;19.386;2023-04-21T02:06:58;35.25;;;15.93;;
21458;SDS011;10891;49.350;19.386;2023-04-21T02:09:24;41.20;;;15.85;;
21458;SDS011;10891;49.350;19.386;2023-04-21T02:11:51;53.58;;;17.02;;
21458;SDS011;10891;49.350;19.386;2023-04-21T02:14:22;45.40;;;17.05;;
21458;SDS011;10891;49.350;19.386;2023-04-21T02:16:49;135.23;;;37.50;;
21458;SDS011;10891;49.350;19.386;2023-04-21T02:19:17;53.17;;;18.40;;
21458;SDS011;10891;49.350;19.386;2023-04-21T02:21:44;46.15;;;16.38;;
21458;SDS011;10891;49.350;19.386;2023-04-21T02:24:11;31.88;;;14.48;;
21458;SDS011;10891;49.350;19.386;2023-04-21T02:26:38;32.40;;;14.32;;
21458;SDS011;10891;49.350;19.386;2023-04-21T02:29:05;29.50;;;14.85;;
21458;SDS011;10891;49.350;19.386;2023-04-21T02:31:33;32.67;;;13.70;;
21458;SDS011;10891;49.350;19.386;2023-04-21T02:34:00;43.05;;;17.42;;
21458;SDS011;10891;49.350;19.386;2023-04-21T02:36:27;39.35;;;16.05;;
21458;SDS011;10891;49.350;19.386;2023-04-21T02:38:55;62.63;;;18.38;;
21458;SDS011;10891;49.350;19.386;2023-04-21T02:41:22;52.35;;;18.17;;
21458;SDS011;10891;49.350;19.386;2023-04-21T02:43:49;57.28;;;18.55;;
21458;SDS011;10891;49.350;19.386;2023-04-21T02:46:16;40.70;;;16.42;;
21458;SDS011;10891;49.350;19.386;2023-04-21T02:48:44;43.50;;;16.30;;
21458;SDS011;10891;49.350;19.386;2023-04-21T02:51:11;47.75;;;18.10;;
21458;SDS011;10891;49.350;19.386;2023-04-21T02:53:39;41.78;;;17.27;;
21458;SDS011;10891;49.350;19.386;2023-04-21T02:56:06;54.35;;;17.77;;
21458;SDS011;10891;49.350;19.386;2023-04-21T02:58:34;42.35;;;15.88;;
21458;SDS011;10891;49.350;19.386;2023-04-21T03:01:02;48.22;;;15.13;;
21458;SDS011;10891;49.350;19.386;2023-04-21T03:03:30;51.45;;;15.52;;
21458;SDS011;10891;49.350;19.386;2023-04-21T03:05:59;53.03;;;15.48;;
21458;SDS011;10891;49.350;19.386;2023-04-21T03:08:27;51.45;;;16.23;;
21458;SDS011;10891;49.350;19.386;2023-04-21T03:10:55;71.88;;;18.13;;
21458;SDS011;10891;49.350;19.386;2023-04-21T03:13:22;60.35;;;16.05;;
21458;SDS011;10891;49.350;19.386;2023-04-21T03:15:49;64.18;;;16.20;;
21458;SDS011;10891;49.350;19.386;2023-04-21T03:18:16;59.30;;;16.10;;
21458;SDS011;10891;49.350;19.386;2023-04-21T03:20:43;45.25;;;14.02;;
21458;SDS011;10891;49.350;19.386;2023-04-21T03:23:12;47.97;;;15.70;;
21458;SDS011;10891;49.350;19.386;2023-04-21T03:25:39;59.08;;;16.75;;
21458;SDS011;10891;49.350;19.386;2023-04-21T03:28:05;71.97;;;15.57;;
21458;SDS011;10891;49.350;19.386;2023-04-21T03:30:32;73.85;;;16.10;;
21458;SDS011;10891;49.350;19.386;2023-04-21T03:32:59;59.28;;;14.98;;
21458;SDS011;10891;49.350;19.386;2023-04-21T03:35:28;52.58;;;14.70;;
21458;SDS011;10891;49.350;19.386;2023-04-21T03:37:55;58.58;;;14.43;;
21458;SDS011;10891;49.350;19.386;2023-04-21T03:40:23;56.45;;;15.50;;
21458;SDS011;10891;49.350;19.386;2023-04-21T03:42:50;61.92;;;13.80;;
21458;SDS011;10891;49.350;19.386;2023-04-21T03:45:17;53.65;;;14.07;;
21458;SDS011;10891;49.350;19.386;2023-04-21T03:47:46;40.00;;;15.43;;
21458;SDS011;10891;49.350;19.386;2023-04-21T03:50:13;35.20;;;14.57;;
21458;SDS011;10891;49.350;19.386;2023-04-21T03:52:41;42.15;;;14.00;;
21458;SDS011;10891;49.350;19.386;2023-04-21T03:55:08;39.42;;;15.63;;
21458;SDS011;10891;49.350;19.386;2023-04-21T03:57:38;49.80;;;15.43;;
21458;SDS011;10891;49.350;19.386;2023-04-21T04:00:06;46.92;;;15.93;;
21458;SDS011;10891;49.350;19.386;2023-04-21T04:02:35;49.67;;;15.82;;
21458;SDS011;10891;49.350;19.386;2023-04-21T04:05:01;34.75;;;13.75;;
21458;SDS011;10891;49.350;19.386;2023-04-21T04:07:29;42.78;;;14.55;;
21458;SDS011;10891;49.350;19.386;2023-04-21T04:09:56;50.13;;;14.60;;
21458;SDS011;10891;49.350;19.386;2023-04-21T04:12:23;54.20;;;14.52;;
21458;SDS011;10891;49.350;19.386;2023-04-21T04:14:52;56.58;;;16.85;;
21458;SDS011;10891;49.350;19.386;2023-04-21T04:17:19;58.13;;;15.80;;
21458;SDS011;10891;49.350;19.386;2023-04-21T04:19:46;61.30;;;14.77;;
21458;SDS011;10891;49.350;19.386;2023-04-21T04:22:13;49.30;;;17.90;;
21458;SDS011;10891;49.350;19.386;2023-04-21T04:24:39;67.07;;;16.48;;
21458;SDS011;10891;49.350;19.386;2023-04-21T04:27:09;59.53;;;15.90;;
21458;SDS011;10891;49.350;19.386;2023-04-21T04:29:38;64.80;;;17.30;;
21458;SDS011;10891;49.350;19.386;2023-04-21T04:32:06;52.90;;;19.05;;
21458;SDS011;10891;49.350;19.386;2023-04-21T04:34:34;63.58;;;20.15;;
21458;SDS011;10891;49.350;19.386;2023-04-21T04:37:02;61.25;;;20.15;;
21458;SDS011;10891;49.350;19.386;2023-04-21T04:39:30;73.28;;;21.08;;
21458;SDS011;10891;49.350;19.386;2023-04-21T04:41:58;70.55;;;20.02;;
21458;SDS011;10891;49.350;19.386;2023-04-21T04:44:25;66.85;;;24.98;;
21458;SDS011;10891;49.350;19.386;2023-04-21T04:46:52;84.72;;;24.30;;
21458;SDS011;10891;49.350;19.386;2023-04-21T04:49:20;73.78;;;24.55;;
21458;SDS011;10891;49.350;19.386;2023-04-21T04:51:47;103.30;;;28.17;;
21458;SDS011;10891;49.350;19.386;2023-04-21T04:54:14;72.03;;;26.13;;
21458;SDS011;10891;49.350;19.386;2023-04-21T04:56:41;90.45;;;28.52;;
21458;SDS011;10891;49.350;19.386;2023-04-21T04:59:07;72.20;;;26.98;;
21458;SDS011;10891;49.350;19.386;2023-04-21T05:01:34;75.93;;;29.17;;
21458;SDS011;10891;49.350;19.386;2023-04-21T05:04:02;58.33;;;22.23;;
21458;SDS011;10891;49.350;19.386;2023-04-21T05:06:30;54.58;;;20.08;;
21458;SDS011;10891;49.350;19.386;2023-04-21T05:08:57;63.60;;;25.63;;
21458;SDS011;10891;49.350;19.386;2023-04-21T05:11:24;61.33;;;28.27;;
21458;SDS011;10891;49.350;19.386;2023-04-21T05:13:51;69.78;;;29.95;;
21458;SDS011;10891;49.350;19.386;2023-04-21T05:16:18;46.33;;;21.10;;
21458;SDS011;10891;49.350;19.386;2023-04-21T05:18:47;56.10;;;21.00;;
21458;SDS011;10891;49.350;19.386;2023-04-21T05:21:21;42.65;;;19.67;;
21458;SDS011;10891;49.350;19.386;2023-04-21T05:23:50;49.15;;;20.17;;
21458;SDS011;10891;49.350;19.386;2023-04-21T05:26:17;57.05;;;21.55;;
21458;SDS011;10891;49.350;19.386;2023-04-21T05:28:44;67.35;;;27.58;;
21458;SDS011;10891;49.350;19.386;2023-04-21T05:31:11;60.53;;;24.23;;
21458;SDS011;10891;49.350;19.386;2023-04-21T05:33:38;62.63;;;24.95;;
21458;SDS011;10891;49.350;19.386;2023-04-21T05:36:05;51.50;;;23.27;;
21458;SDS011;10891;49.350;19.386;2023-04-21T05:38:33;58.30;;;23.90;;
21458;SDS011;10891;49.350;19.386;2023-04-21T05:41:01;51.95;;;20.70;;
21458;SDS011;10891;49.350;19.386;2023-04-21T05:43:29;54.63;;;22.90;;
21458;SDS011;10891;49.350;19.386;2023-04-21T05:45:57;45.67;;;21.83;;
21458;SDS011;10891;49.350;19.386;2023-04-21T05:48:25;48.28;;;21.58;;
21458;SDS011;10891;49.350;19.386;2023-04-21T05:50:52;47.50;;;21.52;;
21458;SDS011;10891;49.350;19.386;2023-04-21T05:53:19;48.15;;;22.92;;
21458;SDS011;10891;49.350;19.386;2023-04-21T05:55:47;45.38;;;21.85;;
21458;SDS011;10891;49.350;19.386;2023-04-21T05:58:16;48.72;;;21.95;;
21458;SDS011;10891;49.350;19.386;2023-04-21T06:00:43;56.30;;;23.83;;
21458;SDS011;10891;49.350;19.386;2023-04-21T06:03:11;41.53;;;21.00;;
21458;SDS011;10891;49.350;19.386;2023-04-21T06:05:38;45.97;;;19.00;;
21458;SDS011;10891;49.350;19.386;2023-04-21T06:08:07;37.90;;;16.67;;
21458;SDS011;10891;49.350;19.386;2023-04-21T06:10:34;28.65;;;14.32;;
21458;SDS011;10891;49.350;19.386;2023-04-21T06:13:01;23.77;;;12.80;;
21458;SDS011;10891;49.350;19.386;2023-04-21T06:15:29;20.85;;;11.40;;
21458;SDS011;10891;49.350;19.386;2023-04-21T06:17:56;19.77;;;10.48;;
21458;SDS011;10891;49.350;19.386;2023-04-21T06:20:23;20.40;;;10.15;;
21458;SDS011;10891;49.350;19.386;2023-04-21T06:22:51;17.60;;;8.38;;
21458;SDS011;10891;49.350;19.386;2023-04-21T06:25:18;13.32;;;7.30;;
21458;SDS011;10891;49.350;19.386;2023-04-21T06:27:45;17.05;;;9.27;;
21458;SDS011;10891;49.350;19.386;2023-04-21T06:30:12;19.35;;;9.75;;
21458;SDS011;10891;49.350;19.386;2023-04-21T06:32:41;19.23;;;9.60;;
21458;SDS011;10891;49.350;19.386;2023-04-21T06:35:10;24.60;;;10.27;;
21458;SDS011;10891;49.350;19.386;2023-04-21T06:37:39;12.85;;;7.90;;
21458;SDS011;10891;49.350;19.386;2023-04-21T06:40:06;13.77;;;8.30;;
21458;SDS011;10891;49.350;19.386;2023-04-21T06:42:36;16.30;;;7.82;;
21458;SDS011;10891;49.350;19.386;2023-04-21T06:45:03;21.88;;;9.80;;
21458;SDS011;10891;49.350;19.386;2023-04-21T06:47:31;13.40;;;7.72;;
21458;SDS011;10891;49.350;19.386;2023-04-21T06:49:59;15.13;;;8.65;;
21458;SDS011;10891;49.350;19.386;2023-04-21T06:52:26;23.50;;;9.52;;
21458;SDS011;10891;49.350;19.386;2023-04-21T06:54:53;24.65;;;11.05;;
21458;SDS011;10891;49.350;19.386;2023-04-21T06:57:20;23.73;;;11.75;;
21458;SDS011;10891;49.350;19.386;2023-04-21T06:59:47;19.65;;;8.93;;
21458;SDS011;10891;49.350;19.386;2023-04-21T07:02:14;16.40;;;9.02;;
21458;SDS011;10891;49.350;19.386;2023-04-21T07:04:40;19.50;;;7.63;;
21458;SDS011;10891;49.350;19.386;2023-04-21T07:07:09;25.90;;;7.82;;
21458;SDS011;10891;49.350;19.386;2023-04-21T07:09:37;18.42;;;8.88;;
21458;SDS011;10891;49.350;19.386;2023-04-21T07:12:04;15.52;;;6.65;;
21458;SDS011;10891;49.350;19.386;2023-04-21T07:14:31;18.05;;;7.22;;
21458;SDS011;10891;49.350;19.386;2023-04-21T07:16:58;13.65;;;6.18;;
21458;SDS011;10891;49.350;19.386;2023-04-21T07:19:25;14.88;;;6.95;;
21458;SDS011;10891;49.350;19.386;2023-04-21T07:21:52;23.85;;;7.05;;
21458;SDS011;10891;49.350;19.386;2023-04-21T07:24:21;18.58;;;6.85;;
21458;SDS011;10891;49.350;19.386;2023-04-21T07:26:48;14.20;;;6.72;;
21458;SDS011;10891;49.350;19.386;2023-04-21T07:29:15;11.02;;;5.75;;
21458;SDS011;10891;49.350;19.386;2023-04-21T07:31:42;16.48;;;7.13;;
21458;SDS011;10891;49.350;19.386;2023-04-21T07:34:11;18.55;;;7.50;;
21458;SDS011;10891;49.350;19.386;2023-04-21T07:36:38;11.98;;;6.28;;
21458;SDS011;10891;49.350;19.386;2023-04-21T07:39:05;15.13;;;6.40;;
21458;SDS011;10891;49.350;19.386;2023-04-21T07:41:33;14.38;;;6.15;;
21458;SDS011;10891;49.350;19.386;2023-04-21T07:44:00;16.58;;;6.30;;
21458;SDS011;10891;49.350;19.386;2023-04-21T07:46:27;18.83;;;5.50;;
21458;SDS011;10891;49.350;19.386;2023-04-21T07:48:56;14.43;;;5.78;;
21458;SDS011;10891;49.350;19.386;2023-04-21T07:51:23;11.07;;;4.78;;
21458;SDS011;10891;49.350;19.386;2023-04-21T07:53:51;15.15;;;5.25;;
21458;SDS011;10891;49.350;19.386;2023-04-21T07:56:18;18.38;;;5.40;;
21458;SDS011;10891;49.350;19.386;2023-04-21T07:58:47;11.20;;;5.05;;
21458;SDS011;10891;49.350;19.386;2023-04-21T08:01:14;11.18;;;4.88;;
21458;SDS011;10891;49.350;19.386;2023-04-21T08:03:42;12.48;;;4.38;;
21458;SDS011;10891;49.350;19.386;2023-04-21T08:06:08;11.75;;;4.53;;
21458;SDS011;10891;49.350;19.386;2023-04-21T08:08:35;15.82;;;5.22;;
21458;SDS011;10891;49.350;19.386;2023-04-21T08:11:02;35.50;;;12.25;;
21458;SDS011;10891;49.350;19.386;2023-04-21T08:13:29;33.58;;;12.35;;
21458;SDS011;10891;49.350;19.386;2023-04-21T08:15:58;18.85;;;7.00;;
21458;SDS011;10891;49.350;19.386;2023-04-21T08:18:25;16.65;;;5.95;;
21458;SDS011;10891;49.350;19.386;2023-04-21T08:20:52;7.53;;;3.85;;
21458;SDS011;10891;49.350;19.386;2023-04-21T08:23:21;13.32;;;5.20;;
21458;SDS011;10891;49.350;19.386;2023-04-21T08:25:48;11.48;;;4.63;;
21458;SDS011;10891;49.350;19.386;2023-04-21T08:28:15;11.73;;;4.90;;
21458;SDS011;10891;49.350;19.386;2023-04-21T08:30:42;14.77;;;4.93;;
21458;SDS011;10891;49.350;19.386;2023-04-21T08:33:11;6.32;;;3.35;;
21458;SDS011;10891;49.350;19.386;2023-04-21T08:35:38;20.33;;;6.75;;
21458;SDS011;10891;49.350;19.386;2023-04-21T08:38:06;26.27;;;10.88;;
21458;SDS011;10891;49.350;19.386;2023-04-21T08:40:34;19.45;;;7.30;;
21458;SDS011;10891;49.350;19.386;2023-04-21T08:43:03;16.35;;;5.57;;
21458;SDS011;10891;49.350;19.386;2023-04-21T08:45:31;9.32;;;4.50;;
21458;SDS011;10891;49.350;19.386;2023-04-21T08:47:59;10.65;;;4.50;;
21458;SDS011;10891;49.350;19.386;2023-04-21T08:50:30;10.57;;;4.82;;
21458;SDS011;10891;49.350;19.386;2023-04-21T08:52:57;13.57;;;5.03;;
21458;SDS011;10891;49.350;19.386;2023-04-21T08:55:25;9.73;;;4.97;;
21458;SDS011;10891;49.350;19.386;2023-04-21T08:57:53;8.65;;;4.65;;
21458;SDS011;10891;49.350;19.386;2023-04-21T09:00:20;7.53;;;4.55;;
21458;SDS011;10891;49.350;19.386;2023-04-21T09:02:54;9.95;;;4.03;;
21458;SDS011;10891;49.350;19.386;2023-04-21T09:05:23;12.43;;;5.20;;
21458;SDS011;10891;49.350;19.386;2023-04-21T09:07:52;12.20;;;4.97;;
21458;SDS011;10891;49.350;19.386;2023-04-21T09:10:32;6.53;;;4.55;;
21458;SDS011;10891;49.350;19.386;2023-04-21T09:12:59;12.52;;;5.20;;
21458;SDS011;10891;49.350;19.386;2023-04-21T09:15:37;7.10;;;4.57;;
21458;SDS011;10891;49.350;19.386;2023-04-21T09:18:09;12.43;;;4.97;;
21458;SDS011;10891;49.350;19.386;2023-04-21T09:20:38;18.63;;;5.30;;
21458;SDS011;10891;49.350;19.386;2023-04-21T09:23:06;16.08;;;4.70;;
21458;SDS011;10891;49.350;19.386;2023-04-21T09:25:33;14.40;;;4.32;;
21458;SDS011;10891;49.350;19.386;2023-04-21T09:28:05;7.80;;;3.83;;
21458;SDS011;10891;49.350;19.386;2023-04-21T09:30:34;10.48;;;4.75;;
21458;SDS011;10891;49.350;19.386;2023-04-21T09:33:01;11.45;;;4.68;;
21458;SDS011;10891;49.350;19.386;2023-04-21T09:35:28;13.32;;;4.90;;
21458;SDS011;10891;49.350;19.386;2023-04-21T09:37:58;15.65;;;5.65;;
21458;SDS011;10891;49.350;19.386;2023-04-21T09:40:27;9.27;;;5.13;;
21458;SDS011;10891;49.350;19.386;2023-04-21T09:42:55;6.00;;;3.65;;
21458;SDS011;10891;49.350;19.386;2023-04-21T09:45:22;7.68;;;4.32;;
21458;SDS011;10891;49.350;19.386;2023-04-21T09:47:53;11.18;;;4.95;;
21458;SDS011;10891;49.350;19.386;2023-04-21T09:50:22;7.20;;;4.63;;
21458;SDS011;10891;49.350;19.386;2023-04-21T09:52:50;14.43;;;5.22;;
21458;SDS011;10891;49.350;19.386;2023-04-21T09:55:19;10.02;;;5.35;;
21458;SDS011;10891;49.350;19.386;2023-04-21T09:57:53;11.68;;;5.60;;
21458;SDS011;10891;49.350;19.386;2023-04-21T10:00:23;12.43;;;5.43;;
21458;SDS011;10891;49.350;19.386;2023-04-21T10:02:52;25.23;;;16.55;;
21458;SDS011;10891;49.350;19.386;2023-04-21T10:05:20;24.75;;;14.07;;
21458;SDS011;10891;49.350;19.386;2023-04-21T10:07:48;37.25;;;21.52;;
21458;SDS011;10891;49.350;19.386;2023-04-21T10:10:15;21.40;;;12.52;;
21458;SDS011;10891;49.350;19.386;2023-04-21T10:12:45;10.10;;;6.47;;
21458;SDS011;10891;49.350;19.386;2023-04-21T10:28:41;10.18;;;5.72;;
21458;SDS011;10891;49.350;19.386;2023-04-21T10:31:16;8.98;;;5.45;;
21458;SDS011;10891;49.350;19.386;2023-04-21T10:36:47;9.10;;;5.13;;
21458;SDS011;10891;49.350;19.386;2023-04-21T10:39:26;19.50;;;5.60;;
21458;SDS011;10891;49.350;19.386;2023-04-21T10:41:55;24.92;;;5.32;;
21458;SDS011;10891;49.350;19.386;2023-04-21T10:44:24;13.10;;;5.28;;
21458;SDS011;10891;49.350;19.386;2023-04-21T10:46:54;18.83;;;6.30;;
21458;SDS011;10891;49.350;19.386;2023-04-21T10:49:24;14.65;;;5.10;;
21458;SDS011;10891;49.350;19.386;2023-04-21T10:52:02;8.73;;;4.30;;
21458;SDS011;10891;49.350;19.386;2023-04-21T10:54:35;11.73;;;5.50;;
21458;SDS011;10891;49.350;19.386;2023-04-21T10:57:06;11.07;;;4.72;;
21458;SDS011;10891;49.350;19.386;2023-04-21T10:59:35;5.97;;;4.40;;
21458;SDS011;10891;49.350;19.386;2023-04-21T11:02:02;14.02;;;4.70;;
21458;SDS011;10891;49.350;19.386;2023-04-21T11:04:30;7.20;;;4.50;;
21458;SDS011;10891;49.350;19.386;2023-04-21T11:07:04;7.45;;;4.35;;
21458;SDS011;10891;49.350;19.386;2023-04-21T11:09:32;10.57;;;5.03;;
21458;SDS011;10891;49.350;19.386;2023-04-21T11:11:59;15.73;;;4.80;;
21458;SDS011;10891;49.350;19.386;2023-04-21T11:14:28;10.07;;;4.63;;
21458;SDS011;10891;49.350;19.386;2023-04-21T11:16:57;11.98;;;5.00;;
21458;SDS011;10891;49.350;19.386;2023-04-21T11:19:24;9.57;;;4.75;;
21458;SDS011;10891;49.350;19.386;2023-04-21T11:21:52;21.35;;;6.53;;
21458;SDS011;10891;49.350;19.386;2023-04-21T11:24:19;16.13;;;6.00;;
21458;SDS011;10891;49.350;19.386;2023-04-21T11:26:46;11.98;;;5.30;;
21458;SDS011;10891;49.350;19.386;2023-04-21T11:29:13;10.77;;;4.95;;
21458;SDS011;10891;49.350;19.386;2023-04-21T11:31:41;8.30;;;4.55;;
21458;SDS011;10891;49.350;19.386;2023-04-21T11:34:12;13.32;;;4.90;;
21458;SDS011;10891;49.350;19.386;2023-04-21T11:36:41;11.38;;;4.60;;
21458;SDS011;10891;49.350;19.386;2023-04-21T11:39:09;12.93;;;5.68;;
21458;SDS011;10891;49.350;19.386;2023-04-21T11:41:38;8.52;;;4.82;;
21458;SDS011;10891;49.350;19.386;2023-04-21T11:44:05;9.15;;;4.22;;
21458;SDS011;10891;49.350;19.386;2023-04-21T11:46:33;6.38;;;4.18;;
21458;SDS011;10891;49.350;19.386;2023-04-21T11:49:01;11.20;;;4.38;;
21458;SDS011;10891;49.350;19.386;2023-04-21T11:51:35;8.00;;;4.38;;
21458;SDS011;10891;49.350;19.386;2023-04-21T11:54:03;12.25;;;4.93;;
21458;SDS011;10891;49.350;19.386;2023-04-21T11:56:33;13.90;;;4.60;;
21458;SDS011;10891;49.350;19.386;2023-04-21T11:59:05;9.00;;;4.93;;
21458;SDS011;10891;49.350;19.386;2023-04-21T12:01:32;10.82;;;4.22;;
21458;SDS011;10891;49.350;19.386;2023-04-21T12:04:01;8.02;;;4.95;;
21458;SDS011;10891;49.350;19.386;2023-04-21T12:06:29;16.83;;;5.70;;
21458;SDS011;10891;49.350;19.386;2023-04-21T12:08:58;16.50;;;5.57;;
21458;SDS011;10891;49.350;19.386;2023-04-21T12:11:26;7.55;;;4.72;;
21458;SDS011;10891;49.350;19.386;2023-04-21T12:13:55;8.15;;;4.55;;
21458;SDS011;10891;49.350;19.386;2023-04-21T12:16:23;7.90;;;4.80;;
21458;SDS011;10891;49.350;19.386;2023-04-21T12:18:52;7.82;;;4.85;;
21458;SDS011;10891;49.350;19.386;2023-04-21T12:21:19;6.68;;;4.65;;
21458;SDS011;10891;49.350;19.386;2023-04-21T12:23:46;6.25;;;4.15;;
21458;SDS011;10891;49.350;19.386;2023-04-21T12:26:14;7.90;;;4.70;;
21458;SDS011;10891;49.350;19.386;2023-04-21T12:28:41;11.95;;;4.80;;
21458;SDS011;10891;49.350;19.386;2023-04-21T12:31:08;8.68;;;4.72;;
21458;SDS011;10891;49.350;19.386;2023-04-21T12:33:34;15.65;;;5.15;;
21458;SDS011;10891;49.350;19.386;2023-04-21T12:36:01;6.78;;;4.03;;
21458;SDS011;10891;49.350;19.386;2023-04-21T12:38:28;10.30;;;4.57;;
21458;SDS011;10891;49.350;19.386;2023-04-21T12:40:55;9.75;;;4.97;;
21458;SDS011;10891;49.350;19.386;2023-04-21T12:43:24;6.32;;;4.30;;
21458;SDS011;10891;49.350;19.386;2023-04-21T12:45:51;9.70;;;4.68;;
21458;SDS011;10891;49.350;19.386;2023-04-21T12:48:19;11.32;;;5.72;;
21458;SDS011;10891;49.350;19.386;2023-04-21T12:50:46;10.57;;;5.57;;
21458;SDS011;10891;49.350;19.386;2023-04-21T12:53:12;11.25;;;5.18;;
21458;SDS011;10891;49.350;19.386;2023-04-21T12:55:39;13.65;;;5.30;;
21458;SDS011;10891;49.350;19.386;2023-04-21T12:58:06;9.32;;;4.63;;
21458;SDS011;10891;49.350;19.386;2023-04-21T13:00:35;8.43;;;5.13;;
21458;SDS011;10891;49.350;19.386;2023-04-21T13:03:02;8.90;;;5.25;;
21458;SDS011;10891;49.350;19.386;2023-04-21T13:05:29;8.85;;;4.47;;
21458;SDS011;10891;49.350;19.386;2023-04-21T13:07:56;9.80;;;4.90;;
21458;SDS011;10891;49.350;19.386;2023-04-21T13:10:23;7.55;;;5.10;;
21458;SDS011;10891;49.350;19.386;2023-04-21T13:12:50;11.77;;;4.97;;
21458;SDS011;10891;49.350;19.386;2023-04-21T13:15:17;8.48;;;3.83;;
21458;SDS011;10891;49.350;19.386;2023-04-21T13:17:45;9.02;;;4.40;;
21458;SDS011;10891;49.350;19.386;2023-04-21T13:20:12;9.93;;;4.82;;
21458;SDS011;10891;49.350;19.386;2023-04-21T13:22:42;9.73;;;5.00;;
21458;SDS011;10891;49.350;19.386;2023-04-21T13:25:10;9.25;;;5.25;;
21458;SDS011;10891;49.350;19.386;2023-04-21T13:27:36;8.07;;;5.05;;
21458;SDS011;10891;49.350;19.386;2023-04-21T13:30:05;12.68;;;5.40;;
21458;SDS011;10891;49.350;19.386;2023-04-21T13:32:33;10.32;;;5.70;;
21458;SDS011;10891;49.350;19.386;2023-04-21T13:35:02;7.47;;;4.63;;
21458;SDS011;10891;49.350;19.386;2023-04-21T13:37:32;6.88;;;3.83;;
21458;SDS011;10891;49.350;19.386;2023-04-21T13:39:59;8.43;;;4.68;;
21458;SDS011;10891;49.350;19.386;2023-04-21T13:42:26;7.13;;;4.55;;
21458;SDS011;10891;49.350;19.386;2023-04-21T13:44:53;8.20;;;4.82;;
21458;SDS011;10891;49.350;19.386;2023-04-21T13:47:20;9.00;;;4.60;;
21458;SDS011;10891;49.350;19.386;2023-04-21T13:49:48;9.13;;;4.63;;
21458;SDS011;10891;49.350;19.386;2023-04-21T13:52:16;9.90;;;4.93;;
21458;SDS011;10891;49.350;19.386;2023-04-21T13:54:43;14.27;;;5.90;;
21458;SDS011;10891;49.350;19.386;2023-04-21T13:57:10;12.63;;;5.63;;
21458;SDS011;10891;49.350;19.386;2023-04-21T13:59:37;14.13;;;5.53;;
21458;SDS011;10891;49.350;19.386;2023-04-21T14:02:05;13.05;;;5.35;;
21458;SDS011;10891;49.350;19.386;2023-04-21T14:04:32;14.65;;;5.80;;
21458;SDS011;10891;49.350;19.386;2023-04-21T14:07:00;8.82;;;5.65;;
21458;SDS011;10891;49.350;19.386;2023-04-21T14:09:28;12.18;;;5.22;;
21458;SDS011;10891;49.350;19.386;2023-04-21T14:11:55;10.30;;;5.75;;
21458;SDS011;10891;49.350;19.386;2023-04-21T14:14:22;9.52;;;5.25;;
21458;SDS011;10891;49.350;19.386;2023-04-21T14:16:49;12.05;;;5.40;;
21458;SDS011;10891;49.350;19.386;2023-04-21T14:19:16;14.73;;;6.30;;
21458;SDS011;10891;49.350;19.386;2023-04-21T14:21:43;10.73;;;5.80;;
21458;SDS011;10891;49.350;19.386;2023-04-21T14:24:10;10.55;;;5.15;;
21458;SDS011;10891;49.350;19.386;2023-04-21T14:26:38;10.77;;;5.15;;
21458;SDS011;10891;49.350;19.386;2023-04-21T14:29:05;7.97;;;4.85;;
21458;SDS011;10891;49.350;19.386;2023-04-21T14:31:32;6.45;;;4.50;;
21458;SDS011;10891;49.350;19.386;2023-04-21T14:33:59;9.20;;;4.18;;
21458;SDS011;10891;49.350;19.386;2023-04-21T14:36:25;9.65;;;5.40;;
21458;SDS011;10891;49.350;19.386;2023-04-21T14:38:52;11.40;;;4.93;;